Big Hole Natl Battlefield, Montana
Current Conditions -  °F | °C
As of 9:53 PM on Wednesday 22 Oct 2014 (Local Time) from KBTM Reporting Station
Clear Clear  
Wind Chill: 40°   Ceiling: Unl
Heat Index: 40°   Visibility: 10mi
Dew Point: 30°   Wind: 3mph
Humidity: 68%   Direction: 130°SE
Pressure: 30.04"   Gusts: NA
Location:  45.64°N, 113.65°W
Report Text: KBTM 230353Z AUTO 13003KT 10SM CLR 04/M01 A3004 RMK AO2 SLP180 T00441011
Loading
Personal Weather Stations






























Interactive Weather Map
Tropical Storm Tracking
New forecast layout! Learn more

10-Day Weather Forecast

Advertisements
Track Severe Weather on mobile